createdAt,value
2018-06-24T00:00:43.973Z,17.90
2018-06-24T00:03:12.410Z,17.80
2018-06-24T00:05:40.887Z,17.70
2018-06-24T00:08:09.285Z,17.70
2018-06-24T00:10:37.661Z,17.70
2018-06-24T00:13:06.134Z,17.60
2018-06-24T00:15:34.665Z,17.60
2018-06-24T00:18:03.045Z,17.50
2018-06-24T00:20:31.582Z,17.40
2018-06-24T00:23:00.008Z,17.40
2018-06-24T00:25:28.442Z,17.40
2018-06-24T00:27:57.041Z,17.30
2018-06-24T00:30:25.425Z,17.30
2018-06-24T00:32:53.878Z,17.20
2018-06-24T00:35:22.317Z,17.20
2018-06-24T00:37:50.710Z,17.20
2018-06-24T00:40:19.147Z,17.20
2018-06-24T00:42:47.542Z,17.10
2018-06-24T00:45:15.908Z,17.10
2018-06-24T00:47:45.175Z,17.10
2018-06-24T00:50:13.534Z,17.10
2018-06-24T00:52:42.170Z,17.00
2018-06-24T00:55:10.535Z,17.00
2018-06-24T00:57:38.990Z,17.00
2018-06-24T01:00:14.473Z,16.90
2018-06-24T01:02:42.858Z,16.80
2018-06-24T01:05:12.534Z,16.80
2018-06-24T01:07:41.514Z,16.70
2018-06-24T01:10:10.026Z,16.70
2018-06-24T01:12:38.591Z,16.70
2018-06-24T01:15:06.997Z,16.60
2018-06-24T01:17:35.401Z,16.60
2018-06-24T01:20:04.850Z,16.60
2018-06-24T01:22:33.333Z,16.60
2018-06-24T01:25:01.704Z,16.60
2018-06-24T01:27:30.182Z,16.60
2018-06-24T01:29:58.555Z,16.50
2018-06-24T01:32:26.934Z,16.50
2018-06-24T01:34:55.274Z,16.50
2018-06-24T01:37:23.685Z,16.50
2018-06-24T01:39:52.018Z,16.50
2018-06-24T01:42:20.440Z,16.50
2018-06-24T01:44:48.773Z,16.50
2018-06-24T01:47:17.187Z,16.40
2018-06-24T01:49:45.553Z,16.40
2018-06-24T01:52:14.013Z,16.40
2018-06-24T01:54:42.413Z,16.40
2018-06-24T01:57:10.740Z,16.40
2018-06-24T01:59:39.255Z,16.30
2018-06-24T02:04:35.733Z,16.20
2018-06-24T02:07:04.129Z,16.20
2018-06-24T02:09:32.502Z,16.20
2018-06-24T02:12:00.945Z,16.10
2018-06-24T02:14:29.367Z,16.10
2018-06-24T02:16:57.715Z,16.10
2018-06-24T02:19:26.113Z,16.10
2018-06-24T02:21:54.489Z,16.00
2018-06-24T02:24:22.916Z,16.00
2018-06-24T02:26:51.303Z,16.00
2018-06-24T02:29:19.690Z,16.00
2018-06-24T02:31:48.093Z,15.90
2018-06-24T02:34:16.437Z,15.90
2018-06-24T02:36:44.786Z,15.90
2018-06-24T02:39:13.180Z,15.90
2018-06-24T02:41:41.868Z,15.90
2018-06-24T02:46:38.342Z,15.90
2018-06-24T02:49:06.681Z,15.90
2018-06-24T02:51:35.089Z,15.90
2018-06-24T02:54:03.503Z,15.90
2018-06-24T02:56:31.882Z,15.90
2018-06-24T02:59:00.331Z,15.90
2018-06-24T03:01:28.680Z,15.90
2018-06-24T03:03:57.069Z,15.90
2018-06-24T03:06:25.481Z,15.90
2018-06-24T03:08:53.901Z,15.90
2018-06-24T03:11:22.562Z,15.90
2018-06-24T03:13:51.007Z,15.90
2018-06-24T03:16:19.376Z,16.00
2018-06-24T03:18:47.752Z,16.00
2018-06-24T03:21:16.105Z,16.00
2018-06-24T03:23:44.473Z,16.00
2018-06-24T03:26:12.890Z,16.00
2018-06-24T03:28:41.339Z,16.00
2018-06-24T03:31:09.699Z,16.00
2018-06-24T03:33:38.230Z,16.00
2018-06-24T03:36:06.615Z,16.00
2018-06-24T03:38:34.980Z,16.00
2018-06-24T03:41:03.382Z,16.10
2018-06-24T03:43:31.713Z,16.10
2018-06-24T03:46:00.103Z,16.10
2018-06-24T03:48:28.482Z,16.00
2018-06-24T03:50:56.890Z,16.10
2018-06-24T03:53:25.361Z,16.10
2018-06-24T03:55:53.755Z,16.10
2018-06-24T03:58:22.216Z,16.10
2018-06-24T04:00:50.646Z,16.00
2018-06-24T04:03:19.053Z,16.10
2018-06-24T04:05:47.415Z,16.00
2018-06-24T04:08:15.774Z,16.00
2018-06-24T04:10:44.105Z,16.00
2018-06-24T04:13:12.582Z,16.00
2018-06-24T04:15:41.165Z,16.00
2018-06-24T04:18:09.530Z,16.10
2018-06-24T04:23:06.078Z,16.10
2018-06-24T04:25:34.596Z,16.20
2018-06-24T04:28:03.174Z,16.10
2018-06-24T04:30:31.650Z,16.20
2018-06-24T04:33:00.021Z,16.20
2018-06-24T04:35:28.413Z,16.20
2018-06-24T04:37:56.897Z,16.30
2018-06-24T04:40:25.279Z,16.30
2018-06-24T04:42:53.618Z,16.30
2018-06-24T04:45:22.037Z,16.40
2018-06-24T04:47:50.541Z,16.40
2018-06-24T04:50:19.019Z,16.40
2018-06-24T04:52:47.446Z,16.40
2018-06-24T04:55:15.821Z,16.40
2018-06-24T04:57:44.162Z,16.50
2018-06-24T05:00:12.516Z,16.50
2018-06-24T05:02:40.993Z,16.50
2018-06-24T05:05:09.431Z,16.50
2018-06-24T05:07:37.838Z,16.50
2018-06-24T05:10:06.330Z,16.50
2018-06-24T05:12:34.818Z,16.60
2018-06-24T05:15:03.213Z,16.60
2018-06-24T05:17:31.620Z,16.60
2018-06-24T05:20:00.031Z,16.60
2018-06-24T05:22:28.401Z,16.60
2018-06-24T05:24:56.730Z,16.60
2018-06-24T05:27:25.089Z,16.60
2018-06-24T05:29:53.506Z,16.60
2018-06-24T05:32:21.862Z,16.60
2018-06-24T05:34:50.241Z,16.70
2018-06-24T05:37:18.763Z,16.70
2018-06-24T05:39:47.109Z,16.70
2018-06-24T05:42:15.681Z,16.70
2018-06-24T05:44:44.053Z,16.70
2018-06-24T05:47:12.399Z,16.70
2018-06-24T05:49:40.823Z,16.80
2018-06-24T05:52:09.365Z,16.80
2018-06-24T05:54:37.781Z,16.80
2018-06-24T05:57:06.161Z,16.90
2018-06-24T05:59:34.585Z,16.90
2018-06-24T06:02:02.954Z,17.00
2018-06-24T06:04:31.293Z,17.00
2018-06-24T06:06:59.722Z,17.10
2018-06-24T06:09:28.302Z,17.00
2018-06-24T06:11:56.747Z,17.10
2018-06-24T06:14:25.078Z,17.10
2018-06-24T06:16:53.586Z,17.10
2018-06-24T06:19:22.069Z,17.10
2018-06-24T06:21:50.599Z,17.20
2018-06-24T06:24:18.868Z,17.30
2018-06-24T06:26:47.494Z,17.30
2018-06-24T06:29:15.932Z,17.40
2018-06-24T06:31:44.417Z,17.40
2018-06-24T06:34:12.821Z,17.50
2018-06-24T06:36:41.254Z,17.60
2018-06-24T06:39:10.390Z,17.60
2018-06-24T06:41:38.806Z,17.60
2018-06-24T06:44:07.218Z,17.70
2018-06-24T06:46:35.698Z,17.70
2018-06-24T06:49:04.094Z,17.80
2018-06-24T06:51:32.538Z,17.80
2018-06-24T06:54:00.927Z,17.80
2018-06-24T06:56:29.308Z,17.80
2018-06-24T06:58:57.694Z,17.80
2018-06-24T07:01:26.086Z,17.90
2018-06-24T07:03:54.464Z,17.90
2018-06-24T07:06:23.053Z,18.00
2018-06-24T07:08:51.460Z,18.00
2018-06-24T07:11:19.870Z,18.00
2018-06-24T07:13:48.486Z,18.00
2018-06-24T07:16:16.825Z,18.00
2018-06-24T07:18:45.342Z,18.00
2018-06-24T07:21:13.701Z,18.00
2018-06-24T07:23:42.099Z,18.10
2018-06-24T07:26:10.551Z,18.10
2018-06-24T07:28:39.189Z,18.10
2018-06-24T07:31:07.566Z,18.10
2018-06-24T07:33:36.081Z,18.00
2018-06-24T07:36:04.435Z,18.10
2018-06-24T07:38:32.822Z,18.10
2018-06-24T07:41:01.193Z,18.10
2018-06-24T07:43:29.570Z,18.20
2018-06-24T07:45:58.051Z,18.20
2018-06-24T07:48:26.418Z,18.20
2018-06-24T07:50:54.895Z,18.20
2018-06-24T07:53:23.352Z,18.20
2018-06-24T07:55:52.176Z,18.20
2018-06-24T07:58:20.544Z,18.20
2018-06-24T08:00:49.046Z,18.20
2018-06-24T08:03:17.535Z,18.20
2018-06-24T08:05:45.858Z,18.30
2018-06-24T08:08:14.258Z,18.30
2018-06-24T08:10:42.642Z,18.30
2018-06-24T08:13:11.014Z,18.40
2018-06-24T08:15:39.509Z,18.50
2018-06-24T08:18:08.039Z,18.60
2018-06-24T08:20:36.588Z,18.60
2018-06-24T08:23:05.114Z,18.70
2018-06-24T08:25:33.748Z,18.80
2018-06-24T08:28:02.331Z,18.80
2018-06-24T08:30:30.976Z,18.80
2018-06-24T08:32:59.540Z,18.90
2018-06-24T08:35:28.386Z,18.90
2018-06-24T08:37:56.940Z,19.00
2018-06-24T08:40:25.578Z,19.10
2018-06-24T08:42:54.333Z,19.10
2018-06-24T08:45:22.786Z,19.10
2018-06-24T08:47:52.284Z,19.10
2018-06-24T08:50:21.117Z,19.10
2018-06-24T08:52:49.665Z,19.10
2018-06-24T08:55:18.242Z,19.20
2018-06-24T08:57:46.653Z,19.20
2018-06-24T09:00:15.303Z,19.20
2018-06-24T09:02:44.002Z,19.30
2018-06-24T09:05:12.677Z,19.40
2018-06-24T09:07:41.414Z,19.40
2018-06-24T09:10:10.313Z,19.50
2018-06-24T09:12:38.946Z,19.60
2018-06-24T09:15:07.711Z,19.70
2018-06-24T09:17:36.341Z,19.70
2018-06-24T09:22:33.374Z,19.90
2018-06-24T09:25:01.945Z,19.90
2018-06-24T09:27:30.844Z,19.90
2018-06-24T09:29:59.318Z,20.00
2018-06-24T09:32:28.057Z,20.00
2018-06-24T09:34:56.490Z,20.10
2018-06-24T09:37:25.159Z,20.10
2018-06-24T09:39:53.571Z,20.10
2018-06-24T09:42:22.141Z,20.10
2018-06-24T09:44:50.561Z,20.20
2018-06-24T09:47:19.292Z,20.20
2018-06-24T09:49:47.863Z,20.20
2018-06-24T09:52:16.303Z,20.20
2018-06-24T09:54:44.703Z,20.30
2018-06-24T09:57:13.200Z,20.30
2018-06-24T09:59:41.615Z,20.30
2018-06-24T10:02:10.077Z,20.40
2018-06-24T10:04:38.654Z,20.40
2018-06-24T10:07:07.052Z,20.40
2018-06-24T10:09:35.448Z,20.40
2018-06-24T10:12:04.006Z,20.50
2018-06-24T10:14:32.450Z,20.50
2018-06-24T10:17:00.945Z,20.60
2018-06-24T10:19:29.346Z,20.50
2018-06-24T10:21:57.834Z,20.50
2018-06-24T10:24:26.372Z,20.60
2018-06-24T10:26:54.910Z,20.60
2018-06-24T10:29:23.484Z,20.60
2018-06-24T10:31:51.976Z,20.60
2018-06-24T10:34:20.436Z,20.60
2018-06-24T10:36:48.861Z,20.60
2018-06-24T10:39:17.390Z,20.60
2018-06-24T10:41:45.948Z,20.50
2018-06-24T10:44:14.426Z,20.50
2018-06-24T10:46:42.826Z,20.40
2018-06-24T10:49:11.309Z,20.50
2018-06-24T10:51:39.748Z,20.50
2018-06-24T10:54:08.160Z,20.50
2018-06-24T10:56:36.637Z,20.50
2018-06-24T10:59:05.546Z,20.50
2018-06-24T11:01:34.064Z,20.60
2018-06-24T11:04:02.514Z,20.70
2018-06-24T11:06:31.059Z,20.80
2018-06-24T11:08:59.678Z,20.80
2018-06-24T11:11:28.066Z,20.80
2018-06-24T11:13:56.615Z,20.90
2018-06-24T11:16:25.143Z,20.90
2018-06-24T11:18:53.628Z,20.90
2018-06-24T11:21:22.190Z,20.90
2018-06-24T11:23:50.682Z,20.90
2018-06-24T11:26:19.232Z,20.90
2018-06-24T11:28:47.828Z,20.90
2018-06-24T11:31:16.330Z,20.90
2018-06-24T11:33:44.852Z,20.90
2018-06-24T11:36:13.255Z,20.90
2018-06-24T11:38:42.478Z,20.90
2018-06-24T11:41:10.955Z,20.90
2018-06-24T11:43:39.371Z,20.90
2018-06-24T11:46:07.897Z,20.90
2018-06-24T11:48:36.594Z,20.90
2018-06-24T11:51:05.110Z,20.90
2018-06-24T11:53:33.750Z,20.90
2018-06-24T11:56:02.218Z,20.90
2018-06-24T11:58:30.714Z,20.90
2018-06-24T12:00:59.190Z,20.90
2018-06-24T12:03:27.751Z,20.90
2018-06-24T12:05:56.156Z,20.90
2018-06-24T12:08:24.672Z,20.90
2018-06-24T12:10:53.205Z,21.00
2018-06-24T12:13:21.706Z,21.10
2018-06-24T12:15:50.281Z,21.10
2018-06-24T12:18:19.269Z,21.20
2018-06-24T12:20:47.685Z,21.30
2018-06-24T12:23:16.254Z,21.40
2018-06-24T12:25:45.017Z,21.40
2018-06-24T12:28:13.428Z,21.50
2018-06-24T12:30:41.965Z,21.60
2018-06-24T12:33:10.542Z,21.70
2018-06-24T12:35:38.949Z,21.80
2018-06-24T12:38:07.513Z,21.80
2018-06-24T12:40:36.210Z,21.90
2018-06-24T12:43:05.207Z,22.00
2018-06-24T12:45:34.090Z,22.00
2018-06-24T12:48:02.529Z,22.10
2018-06-24T12:50:30.958Z,22.20
2018-06-24T12:52:59.637Z,22.20
2018-06-24T12:55:28.296Z,22.30
2018-06-24T12:57:56.862Z,22.40
2018-06-24T13:00:26.312Z,22.40
2018-06-24T13:02:54.269Z,22.30
2018-06-24T13:05:22.763Z,22.30
2018-06-24T13:07:51.265Z,22.20
2018-06-24T13:10:19.770Z,22.20
2018-06-24T13:12:48.267Z,22.10
2018-06-24T13:15:16.701Z,22.10
2018-06-24T13:17:45.186Z,22.10
2018-06-24T13:20:13.694Z,22.30
2018-06-24T13:22:42.097Z,22.50
2018-06-24T13:25:10.978Z,22.70
2018-06-24T13:27:39.574Z,22.90
2018-06-24T13:30:08.238Z,23.10
2018-06-24T13:32:36.846Z,23.30
2018-06-24T13:35:05.330Z,23.40
2018-06-24T13:37:33.862Z,23.60
2018-06-24T13:40:02.362Z,23.70
2018-06-24T13:42:30.800Z,23.70
2018-06-24T13:44:59.643Z,23.70
2018-06-24T13:47:28.527Z,23.80
2018-06-24T13:49:57.003Z,23.80
2018-06-24T13:52:25.594Z,24.00
2018-06-24T13:54:54.034Z,24.30
2018-06-24T13:57:22.489Z,24.50
2018-06-24T13:59:50.984Z,24.60
2018-06-24T14:02:19.513Z,24.70
2018-06-24T14:04:47.946Z,25.00
2018-06-24T14:07:16.383Z,25.20
2018-06-24T14:09:44.917Z,25.20
2018-06-24T14:12:13.368Z,25.20
2018-06-24T14:14:41.780Z,25.20
2018-06-24T14:17:10.281Z,25.30
2018-06-24T14:19:38.725Z,25.00
2018-06-24T14:22:07.291Z,24.90
2018-06-24T14:24:35.818Z,24.70
2018-06-24T14:27:04.441Z,24.50
2018-06-24T14:29:33.004Z,24.30
2018-06-24T14:32:01.595Z,24.30
2018-06-24T14:34:30.195Z,24.20
2018-06-24T14:36:58.790Z,24.10
2018-06-24T14:39:27.560Z,24.00
2018-06-24T14:41:56.117Z,23.90
2018-06-24T14:44:24.720Z,23.80
2018-06-24T14:46:53.429Z,23.70
2018-06-24T14:49:21.965Z,23.60
2018-06-24T14:51:50.388Z,23.50
2018-06-24T14:54:18.788Z,23.40
2018-06-24T14:56:47.333Z,23.30
2018-06-24T14:59:15.917Z,23.20
2018-06-24T15:01:44.541Z,23.20
2018-06-24T15:04:12.945Z,23.10
2018-06-24T15:06:41.550Z,23.00
2018-06-24T15:09:11.461Z,22.90
2018-06-24T15:11:39.965Z,22.80
2018-06-24T15:14:08.584Z,22.70
2018-06-24T15:16:37.470Z,22.70
2018-06-24T15:19:06.721Z,22.70
2018-06-24T15:21:35.306Z,22.60
2018-06-24T15:24:03.985Z,22.60
2018-06-24T15:26:32.432Z,22.60
2018-06-24T15:29:00.952Z,22.60
2018-06-24T15:31:29.455Z,22.60
2018-06-24T15:33:58.082Z,22.70
2018-06-24T15:36:26.806Z,22.80
2018-06-24T15:38:55.252Z,22.80
2018-06-24T15:41:23.709Z,22.80
2018-06-24T15:43:52.350Z,22.90
2018-06-24T15:46:21.043Z,22.90
2018-06-24T15:48:49.524Z,23.00
2018-06-24T15:51:19.050Z,23.10
2018-06-24T15:53:48.049Z,23.10
2018-06-24T15:56:16.670Z,23.10
2018-06-24T15:58:45.209Z,23.00
2018-06-24T16:01:13.627Z,23.00
2018-06-24T16:03:42.137Z,22.90
2018-06-24T16:06:10.576Z,22.80
2018-06-24T16:08:39.079Z,22.70
2018-06-24T16:11:07.649Z,22.70
2018-06-24T16:13:36.167Z,22.70
2018-06-24T16:16:05.486Z,22.70
2018-06-24T16:18:34.143Z,22.70
2018-06-24T16:21:02.830Z,22.60
2018-06-24T16:23:31.177Z,22.50
2018-06-24T16:25:59.671Z,22.50
2018-06-24T16:28:28.160Z,22.50
2018-06-24T16:30:56.783Z,22.50
2018-06-24T16:35:53.373Z,22.50
2018-06-24T16:38:21.975Z,22.50
2018-06-24T16:40:50.358Z,22.50
2018-06-24T16:43:18.871Z,22.60
2018-06-24T16:45:47.471Z,22.60
2018-06-24T16:48:16.037Z,22.60
2018-06-24T16:50:44.702Z,22.70
2018-06-24T16:53:13.187Z,22.70
2018-06-24T16:55:41.609Z,22.80
2018-06-24T16:58:10.198Z,22.80
2018-06-24T17:00:38.806Z,22.80
2018-06-24T17:03:07.408Z,22.80
2018-06-24T17:05:36.285Z,22.80
2018-06-24T17:08:04.860Z,22.70
2018-06-24T17:10:33.375Z,22.70
2018-06-24T17:13:02.041Z,22.60
2018-06-24T17:15:30.577Z,22.60
2018-06-24T17:17:59.321Z,22.50
2018-06-24T17:20:28.106Z,22.40
2018-06-24T17:22:56.594Z,22.40
2018-06-24T17:25:25.008Z,22.30
2018-06-24T17:27:53.442Z,22.30
2018-06-24T17:30:22.088Z,22.20
2018-06-24T17:32:50.698Z,22.20
2018-06-24T17:35:19.176Z,22.20
2018-06-24T17:37:47.723Z,22.10
2018-06-24T17:40:16.210Z,22.00
2018-06-24T17:42:44.811Z,22.10
2018-06-24T17:45:13.327Z,22.10
2018-06-24T17:47:41.791Z,22.10
2018-06-24T17:50:10.239Z,22.00
2018-06-24T17:52:39.000Z,22.00
2018-06-24T17:55:07.699Z,22.00
2018-06-24T17:57:36.311Z,22.00
2018-06-24T18:00:05.885Z,22.00
2018-06-24T18:02:34.598Z,22.00
2018-06-24T18:05:03.203Z,21.90
2018-06-24T18:07:31.769Z,21.90
2018-06-24T18:10:00.280Z,21.90
2018-06-24T18:12:28.884Z,21.80
2018-06-24T18:14:57.351Z,21.80
2018-06-24T18:17:25.914Z,21.70
2018-06-24T18:19:54.403Z,21.70
2018-06-24T18:24:51.311Z,21.70
2018-06-24T18:27:19.971Z,21.60
2018-06-24T18:29:48.574Z,21.60
2018-06-24T18:32:17.083Z,21.60
2018-06-24T18:34:45.721Z,21.50
2018-06-24T18:37:14.350Z,21.50
2018-06-24T18:39:42.971Z,21.40
2018-06-24T18:42:11.480Z,21.40
2018-06-24T18:44:39.968Z,21.40
2018-06-24T18:47:08.444Z,21.30
2018-06-24T18:49:37.059Z,21.30
2018-06-24T18:52:05.744Z,21.30
2018-06-24T18:54:34.302Z,21.20
2018-06-24T18:57:03.122Z,21.20
2018-06-24T18:59:31.610Z,21.20
2018-06-24T19:02:00.069Z,21.10
2018-06-24T19:04:28.578Z,21.10
2018-06-24T19:06:57.290Z,21.10
2018-06-24T19:09:26.103Z,21.10
2018-06-24T19:11:54.742Z,21.10
2018-06-24T19:14:23.285Z,21.10
2018-06-24T19:16:51.960Z,21.10
2018-06-24T19:19:20.367Z,21.00
2018-06-24T19:21:48.852Z,21.00
2018-06-24T19:26:45.687Z,21.00
2018-06-24T19:29:14.403Z,20.90
2018-06-24T19:31:42.870Z,20.90
2018-06-24T19:34:11.335Z,20.90
2018-06-24T19:36:39.890Z,20.90
2018-06-24T19:39:10.416Z,20.90
2018-06-24T19:41:39.543Z,20.80
2018-06-24T19:44:08.160Z,20.80
2018-06-24T19:46:36.660Z,20.80
2018-06-24T19:49:05.275Z,20.80
2018-06-24T19:51:33.879Z,20.80
2018-06-24T19:54:02.457Z,20.80
2018-06-24T19:56:31.046Z,20.80
2018-06-24T20:01:27.718Z,20.80
2018-06-24T20:03:56.203Z,20.70
2018-06-24T20:06:24.779Z,20.80
2018-06-24T20:08:53.326Z,20.80
2018-06-24T20:11:22.016Z,20.70
2018-06-24T20:13:50.508Z,20.80
2018-06-24T20:16:19.414Z,20.70
2018-06-24T20:18:48.051Z,20.70
2018-06-24T20:21:16.636Z,20.70
2018-06-24T20:23:45.141Z,20.70
2018-06-24T20:26:13.572Z,20.70
2018-06-24T20:28:43.123Z,20.70
2018-06-24T20:31:11.662Z,20.60
2018-06-24T20:33:40.310Z,20.60
2018-06-24T20:36:09.670Z,20.60
2018-06-24T20:38:38.098Z,20.60
2018-06-24T20:41:06.933Z,20.60
2018-06-24T20:43:35.441Z,20.60
2018-06-24T20:46:04.039Z,20.60
2018-06-24T20:48:32.759Z,20.50
2018-06-24T20:51:01.422Z,20.50
2018-06-24T20:53:30.039Z,20.50
2018-06-24T20:55:58.502Z,20.50
2018-06-24T20:58:27.187Z,20.50
2018-06-24T21:00:55.662Z,20.50
2018-06-24T21:03:24.215Z,20.50
2018-06-24T21:05:52.815Z,20.50
2018-06-24T21:08:21.325Z,20.50
2018-06-24T21:10:49.785Z,20.50
2018-06-24T21:13:18.442Z,20.40
2018-06-24T21:15:47.075Z,20.40
2018-06-24T21:18:15.686Z,20.40
2018-06-24T21:20:44.178Z,20.40
2018-06-24T21:23:12.701Z,20.40
2018-06-24T21:25:41.190Z,20.40
2018-06-24T21:28:09.590Z,20.40
2018-06-24T21:30:38.179Z,20.40
2018-06-24T21:33:06.691Z,20.30
2018-06-24T21:35:35.164Z,20.30
2018-06-24T21:38:03.653Z,20.30
2018-06-24T21:40:32.071Z,20.30
2018-06-24T21:43:00.517Z,20.20
2018-06-24T21:45:29.095Z,20.20
2018-06-24T21:47:57.673Z,20.20
2018-06-24T21:50:26.447Z,20.20
2018-06-24T21:52:54.862Z,20.20
2018-06-24T21:55:23.423Z,20.20
2018-06-24T21:57:52.090Z,20.10
2018-06-24T22:00:21.047Z,20.10
2018-06-24T22:02:49.670Z,20.10
2018-06-24T22:05:18.373Z,20.10
2018-06-24T22:07:46.841Z,20.10
2018-06-24T22:10:15.289Z,20.10
2018-06-24T22:12:43.933Z,20.00
2018-06-24T22:15:12.454Z,20.00
2018-06-24T22:17:40.857Z,20.00
2018-06-24T22:20:09.252Z,20.00
2018-06-24T22:22:37.677Z,20.00
2018-06-24T22:25:06.180Z,20.00
2018-06-24T22:27:34.625Z,19.90
2018-06-24T22:30:03.142Z,19.90
2018-06-24T22:32:31.657Z,19.90
2018-06-24T22:35:00.175Z,19.80
2018-06-24T22:37:28.752Z,19.80
2018-06-24T22:39:57.114Z,19.80
2018-06-24T22:42:25.482Z,19.80
2018-06-24T22:44:53.870Z,19.80
2018-06-24T22:47:22.268Z,19.70
2018-06-24T22:49:50.653Z,19.70
2018-06-24T22:52:19.006Z,19.70
2018-06-24T22:54:47.482Z,19.70
2018-06-24T22:57:15.958Z,19.60
2018-06-24T22:59:55.526Z,19.70
2018-06-24T23:02:24.045Z,19.70
2018-06-24T23:04:52.525Z,19.70
2018-06-24T23:07:21.023Z,19.60
2018-06-24T23:09:49.464Z,19.60
2018-06-24T23:12:17.943Z,19.60
2018-06-24T23:14:46.374Z,19.60
2018-06-24T23:17:14.792Z,19.60
2018-06-24T23:19:43.249Z,19.50
2018-06-24T23:22:11.722Z,19.50
2018-06-24T23:24:40.234Z,19.50
2018-06-24T23:27:08.611Z,19.50
2018-06-24T23:29:36.986Z,19.50
2018-06-24T23:32:05.337Z,19.50
2018-06-24T23:34:33.741Z,19.50
2018-06-24T23:37:02.178Z,19.50
2018-06-24T23:39:30.547Z,19.40
2018-06-24T23:41:58.907Z,19.40
2018-06-24T23:44:27.270Z,19.30
2018-06-24T23:46:55.781Z,19.30
2018-06-24T23:51:52.306Z,19.30
2018-06-24T23:54:20.763Z,19.30
2018-06-24T23:56:49.373Z,19.30
2018-06-24T23:59:17.875Z,19.30
